Wednesday, April 25, 2018, 12:09 AM CDT
Back to Local

KRSL, Russell Municipal Airport

Location: Russell, KS, United States Lat: 38.867
Local Time: 12:09 AM CDT ( 5:09 GMT) Lon: -98.817
Time Zone: US/Central Elev: 1863 ft

Show me the last for .
Show Decoded

2018-04-24 23:53 METAR KRSL 250453Z AUTO 34017KT 10SM -RA OVC012 06/06 A3028 RMK AO2 SLP258 P0003
                 T00610056 =
2018-04-24 22:53 METAR KRSL 250353Z AUTO 34017G24KT 10SM -RA OVC013 07/06 A3029 RMK AO2 SLP261
                 P0000 T00670061 =
2018-04-24 21:53 METAR KRSL 250253Z AUTO 33014KT 10SM -RA OVC014 07/06 A3028 RMK AO2 RAB37 SLP257
                 P0000 60000 T00720061 53016 =
2018-04-24 21:33 METAR KRSL 250233Z AUTO 34013KT 10SM OVC014 08/06 A3027 RMK AO2 T00780056 =
2018-04-24 20:53 METAR KRSL 250153Z AUTO 34016KT 10SM OVC016 08/06 A3026 RMK AO2 RAE0058 SLP251
                 P0000 T00780056 =
2018-04-24 19:53 METAR KRSL 250053Z AUTO 34014KT 10SM -RA OVC013 08/07 A3024 RMK AO2
                 RAB2354E04B23E34B51 SLP245 P0000 T00780067 =
2018-04-24 18:53 METAR KRSL 242353Z AUTO 34015G19KT 10SM OVC012 08/07 A3023 RMK AO2 SLP243 60001
                 T00830072 10100 20078 50001 =
2018-04-24 18:02 METAR KRSL 242302Z AUTO 35019KT 10SM OVC011 08/07 A3022 RMK AO2 T00830067 =
2018-04-24 17:53 METAR KRSL 242253Z AUTO 34016G23KT 10SM OVC009 08/07 A3023 RMK AO2 SLP246
                 T00780067 =
2018-04-24 17:50 METAR KRSL 242250Z AUTO 33017G22KT 10SM OVC009 08/07 A3023 RMK AO2 =
2018-04-24 16:53 METAR KRSL 242153Z AUTO 33017G23KT 10SM OVC010 08/07 A3023 RMK AO2 CIG 008V013
                 SLP241 T00830072 =
2018-04-24 16:30 METAR KRSL 242130Z AUTO 33016KT 10SM OVC010 08/07 A3023 RMK AO2 CIG 009V013
                 T00830072 =
2018-04-24 15:53 METAR KRSL 242053Z AUTO 33017KT 10SM OVC009 08/08 A3024 RMK AO2 SLP243 60001
                 T00830078 56002 =
2018-04-24 15:50 METAR KRSL 242050Z AUTO 32018KT 10SM OVC009 09/08 A3024 RMK AO2 =
2018-04-24 14:53 METAR KRSL 241953Z AUTO 34017KT 10SM OVC010 09/08 A3024 RMK AO2 PK WND
                 33026/1913 RAE06 CIG 008V014 SLP243 P0000 T00890083 =
2018-04-24 14:37 METAR KRSL 241937Z AUTO 33016G22KT 10SM OVC010 09/08 A3024 RMK AO2 PK WND
                 33026/1913 RAE06 CIG 008V014 P0000 T00890083 =
2018-04-24 14:10 METAR KRSL 241910Z AUTO 33019G25KT 10SM OVC009 09/08 A3024 RMK AO2 RAE06 CIG
                 006V012 P0000 T00890083 =
2018-04-24 13:53 METAR KRSL 241853Z AUTO 33016KT 10SM -RA OVC010 09/08 A3024 RMK AO2 PK WND
                 34028/1806 RAB08 CIG 008V012 SLP245 P0001 T00890083 =
2018-04-24 13:21 METAR KRSL 241821Z AUTO 33019G25KT 10SM -RA BKN012 OVC090 09/08 A3025 RMK AO2 PK
                 WND 34028/1806 RAB08 P0000 T00940083 =
2018-04-24 13:02 METAR KRSL 241802Z AUTO 35020KT 10SM SCT014 OVC090 10/08 A3023 RMK AO2 PK WND
                 35026/1754 T01000078 =
2018-04-24 12:53 METAR KRSL 241753Z AUTO 35018G30KT 10SM BKN014 OVC090 10/08 A3023 RMK AO2 PK WND
                 34030/1747 SLP237 60000 T01000078 10156 20061 53015 =
2018-04-24 12:28 METAR KRSL 241728Z AUTO 33018G24KT 10SM OVC014 11/08 A3024 RMK AO2 PK WND
                 32029/1706 T01110083 =
2018-04-24 12:09 METAR KRSL 241709Z AUTO 33022G29KT 10SM BKN017 OVC100 11/09 A3023 RMK AO2 PK WND
                 32029/1706 T01110089 =
2018-04-24 11:53 METAR KRSL 241653Z AUTO 33022G28KT 10SM FEW019 OVC100 13/09 A3022 RMK AO2 PK WND
                 33028/1653 PRESRR SLP232 T01280094 =
2018-04-24 10:53 METAR KRSL 241553Z AUTO 32015KT 10SM FEW042 SCT070 OVC120 14/10 A3019 RMK AO2
                 RAB28E42 SLP218 P0000 T01440100 =
2018-04-24 09:53 METAR KRSL 241453Z AUTO 31012KT 10SM SCT090 SCT120 13/09 A3018 RMK AO2 RAB13E42
                 SLP220 P0000 60000 T01330089 51017 =
2018-04-24 08:53 METAR KRSL 241353Z AUTO 31005KT 10SM SCT120 11/08 A3017 RMK AO2 SLP213 T01060078
                 =
2018-04-24 07:53 METAR KRSL 241253Z AUTO 31007KT 10SM FEW080 10/08 A3016 RMK AO2 SLP211 T01000078
                 =
2018-04-24 06:53 METAR KRSL 241153Z AUTO 28007KT 10SM CLR 07/05 A3013 RMK AO2 SLP201 T00670050
                 10139 20056 53009 =
2018-04-24 05:53 METAR KRSL 241053Z AUTO 27007KT 10SM CLR 06/04 A3010 RMK AO2 SLP191 T00560044 =
2018-04-24 04:53 METAR KRSL 240953Z AUTO 15003KT 10SM CLR 09/04 A3010 RMK AO2 SLP187 T00890044 =
2018-04-24 03:53 METAR KRSL 240853Z AUTO 00000KT 10SM CLR 10/04 A3010 RMK AO2 SLP189 T01000044
                 50009 =
2018-04-24 02:53 METAR KRSL 240753Z AUTO 36005KT 10SM CLR 09/06 A3011 RMK AO2 SLP193 T00940056 =
2018-04-24 01:53 METAR KRSL 240653Z AUTO 08004KT 10SM CLR 10/07 A3009 RMK AO2 SLP183 T01000067 =
2018-04-24 00:53 METAR KRSL 240553Z AUTO 16003KT 10SM CLR 14/06 A3007 RMK AO2 SLP178 T01390061
                 10211 20111 402220061 52004 =

Support USWX by starting your Amazon purchase here.